createdAt,value
2023-02-15T00:01:15.439Z,0.10
2023-02-15T00:03:49.107Z,0.27
2023-02-15T00:06:19.000Z,0.19
2023-02-15T00:08:55.107Z,0.20
2023-02-15T00:11:40.819Z,0.24
2023-02-15T00:14:16.236Z,0.21
2023-02-15T00:16:48.036Z,0.12
2023-02-15T00:19:24.227Z,0.11
2023-02-15T00:21:57.209Z,0.03
2023-02-15T00:24:31.159Z,-0.08
2023-02-15T00:27:05.134Z,0.04
2023-02-15T00:29:31.882Z,0.03
2023-02-15T00:32:05.278Z,-0.11
2023-02-15T00:34:32.082Z,-0.03
2023-02-15T00:37:05.125Z,-0.05
2023-02-15T00:39:34.366Z,-0.07
2023-02-15T00:42:07.305Z,-0.11
2023-02-15T00:44:33.964Z,-0.10
2023-02-15T00:47:08.281Z,-0.13
2023-02-15T00:49:35.005Z,-0.16
2023-02-15T00:52:08.145Z,-0.20
2023-02-15T00:54:35.866Z,-0.27
2023-02-15T00:57:23.142Z,-0.26
2023-02-15T00:59:50.724Z,-0.30
2023-02-15T01:02:38.158Z,-0.32
2023-02-15T01:05:13.630Z,-0.33
2023-02-15T01:07:47.298Z,-0.38
2023-02-15T01:10:24.975Z,-0.38
2023-02-15T01:12:55.535Z,-0.42
2023-02-15T01:15:29.116Z,-0.46
2023-02-15T01:17:56.338Z,-0.38
2023-02-15T01:20:35.185Z,-0.50
2023-02-15T01:23:01.934Z,-0.44
2023-02-15T01:25:38.285Z,-0.41
2023-02-15T01:28:05.512Z,-0.43
2023-02-15T01:30:40.323Z,-0.56
2023-02-15T01:33:07.254Z,-0.59
2023-02-15T01:35:34.296Z,-0.64
2023-02-15T01:38:07.251Z,-0.56
2023-02-15T01:40:33.787Z,-0.61
2023-02-15T01:43:07.223Z,-0.58
2023-02-15T01:45:34.127Z,-0.64
2023-02-15T01:48:37.162Z,-0.69
2023-02-15T01:51:04.548Z,-0.62
2023-02-15T01:53:49.177Z,-0.65
2023-02-15T01:56:30.266Z,-0.68
2023-02-15T01:59:16.184Z,-0.71
2023-02-15T02:01:43.321Z,-0.74
2023-02-15T02:04:39.147Z,-0.85
2023-02-15T02:07:18.278Z,-0.85
2023-02-15T02:09:53.225Z,-0.90
2023-02-15T02:12:29.208Z,-0.91
2023-02-15T02:15:03.287Z,-0.83
2023-02-15T02:17:59.936Z,-0.86
2023-02-15T02:20:38.146Z,-0.89
2023-02-15T02:23:33.199Z,-0.92
2023-02-15T02:26:19.459Z,-0.91
2023-02-15T02:29:26.869Z,-0.92
2023-02-15T02:32:34.201Z,-0.94
2023-02-15T02:35:25.295Z,-0.96
2023-02-15T02:38:24.572Z,-0.96
2023-02-15T02:41:15.624Z,-0.98
2023-02-15T02:43:55.811Z,-1.16
2023-02-15T02:46:36.336Z,-1.08
2023-02-15T02:49:35.311Z,-1.04
2023-02-15T02:52:04.923Z,-1.04
2023-02-15T02:54:40.216Z,-1.16
2023-02-15T02:57:23.156Z,-1.10
2023-02-15T03:00:03.902Z,-1.10
2023-02-15T03:02:45.216Z,-1.08
2023-02-15T03:05:27.125Z,-1.10
2023-02-15T03:08:02.193Z,-1.17
2023-02-15T03:10:32.956Z,-1.15
2023-02-15T03:13:06.155Z,-1.23
2023-02-15T03:19:06.192Z,-1.31
2023-02-15T03:21:45.271Z,-1.16
2023-02-15T03:24:16.462Z,-1.15
2023-02-15T03:26:53.237Z,-1.08
2023-02-15T03:29:23.189Z,-1.03
2023-02-15T03:32:01.373Z,-1.01
2023-02-15T03:34:28.422Z,-1.02
2023-02-15T03:37:27.229Z,-1.05
2023-02-15T03:40:29.330Z,-1.02
2023-02-15T03:43:09.884Z,-0.96
2023-02-15T03:45:45.214Z,-0.98
2023-02-15T03:48:21.288Z,-0.98
2023-02-15T03:51:14.748Z,-1.04
2023-02-15T03:53:43.211Z,-1.03
2023-02-15T03:56:20.951Z,-1.02
2023-02-15T03:59:13.267Z,-0.91
2023-02-15T04:02:03.372Z,-0.99
2023-02-15T04:04:37.257Z,-0.95
2023-02-15T04:07:06.613Z,-1.01
2023-02-15T04:09:58.175Z,-1.06
2023-02-15T04:12:25.118Z,-1.02
2023-02-15T04:15:17.265Z,-1.04
2023-02-15T04:17:50.241Z,-1.08
2023-02-15T04:20:42.178Z,-1.09
2023-02-15T04:23:27.567Z,-1.12
2023-02-15T04:26:04.998Z,-1.15
2023-02-15T04:28:31.971Z,-1.22
2023-02-15T04:31:08.389Z,-1.23
2023-02-15T04:33:43.184Z,-1.23
2023-02-15T04:36:16.147Z,-1.16
2023-02-15T04:38:42.698Z,-1.23
2023-02-15T04:41:10.253Z,-1.19
2023-02-15T04:43:43.188Z,-1.23
2023-02-15T04:46:16.294Z,-1.23
2023-02-15T04:48:43.111Z,-1.21
2023-02-15T04:51:20.326Z,-1.20
2023-02-15T04:53:46.969Z,-1.34
2023-02-15T04:56:23.212Z,-1.23
2023-02-15T04:58:56.215Z,-1.24
2023-02-15T05:01:28.298Z,-1.23
2023-02-15T05:04:01.241Z,-1.24
2023-02-15T05:06:30.940Z,-1.21
2023-02-15T05:09:07.266Z,-1.23
2023-02-15T05:11:37.459Z,-1.17
2023-02-15T05:14:11.264Z,-1.31
2023-02-15T05:16:38.035Z,-1.25
2023-02-15T05:19:11.233Z,-1.27
2023-02-15T05:21:38.047Z,-1.23
2023-02-15T05:24:31.206Z,-1.19
2023-02-15T05:27:16.130Z,-1.21
2023-02-15T05:29:49.297Z,-1.23
2023-02-15T05:32:16.696Z,-1.28
2023-02-15T05:34:43.490Z,-1.30
2023-02-15T05:37:16.293Z,-1.32
2023-02-15T05:39:42.904Z,-1.32
2023-02-15T05:42:16.276Z,-1.33
2023-02-15T05:44:43.160Z,-1.49
2023-02-15T05:47:23.280Z,-1.39
2023-02-15T05:49:49.900Z,-1.41
2023-02-15T05:52:23.280Z,-1.40
2023-02-15T05:54:49.943Z,-1.45
2023-02-15T05:57:30.316Z,-1.49
2023-02-15T06:00:05.450Z,-1.50
2023-02-15T06:02:44.743Z,-1.52
2023-02-15T06:05:18.456Z,-1.61
2023-02-15T06:07:52.268Z,-1.54
2023-02-15T06:10:19.271Z,-1.59
2023-02-15T06:12:46.183Z,-1.56
2023-02-15T06:15:19.331Z,-1.66
2023-02-15T06:17:46.014Z,-1.56
2023-02-15T06:20:24.964Z,-1.56
2023-02-15T06:22:58.325Z,-1.59
2023-02-15T06:25:40.021Z,-1.61
2023-02-15T06:28:07.306Z,-1.68
2023-02-15T06:30:40.321Z,-1.73
2023-02-15T06:33:14.237Z,-1.63
2023-02-15T06:35:54.337Z,-1.61
2023-02-15T06:38:21.172Z,-1.67
2023-02-15T06:40:54.242Z,-1.73
2023-02-15T06:43:30.379Z,-1.63
2023-02-15T06:45:57.156Z,-1.66
2023-02-15T06:48:23.842Z,-1.62
2023-02-15T06:50:57.265Z,-1.64
2023-02-15T06:53:23.813Z,-1.53
2023-02-15T06:56:16.258Z,-1.57
2023-02-15T06:58:57.228Z,-1.52
2023-02-15T07:01:24.370Z,-1.53
2023-02-15T07:03:57.342Z,-1.54
2023-02-15T07:06:30.593Z,-1.60
2023-02-15T07:09:04.287Z,-1.46
2023-02-15T07:12:10.324Z,-1.47
2023-02-15T07:14:37.045Z,-1.38
2023-02-15T07:17:11.772Z,-1.24
2023-02-15T07:19:51.290Z,-1.08
2023-02-15T07:22:20.190Z,-0.95
2023-02-15T07:24:53.378Z,-0.78
2023-02-15T07:27:20.276Z,-0.62
2023-02-15T07:29:53.279Z,-0.54
2023-02-15T07:32:20.154Z,-0.40
2023-02-15T07:34:56.275Z,-0.30
2023-02-15T07:37:23.048Z,-0.12
2023-02-15T07:39:56.261Z,0.05
2023-02-15T07:42:29.370Z,0.14
2023-02-15T07:45:02.321Z,0.35
2023-02-15T07:47:38.327Z,0.57
2023-02-15T07:50:08.293Z,0.70
2023-02-15T07:52:41.277Z,0.83
2023-02-15T07:55:09.931Z,0.94
2023-02-15T07:57:43.206Z,1.06
2023-02-15T08:00:17.936Z,1.22
2023-02-15T08:03:20.436Z,1.36
2023-02-15T08:05:47.844Z,1.48
2023-02-15T08:08:37.295Z,1.65
2023-02-15T08:11:38.524Z,1.76
2023-02-15T08:14:24.490Z,1.89
2023-02-15T08:17:06.286Z,2.00
2023-02-15T08:19:40.562Z,2.12
2023-02-15T08:22:17.267Z,2.27
2023-02-15T08:24:50.404Z,2.40
2023-02-15T08:27:17.080Z,2.54
2023-02-15T08:29:50.354Z,2.63
2023-02-15T08:32:19.706Z,2.77
2023-02-15T08:35:00.425Z,2.88
2023-02-15T08:37:27.378Z,2.99
2023-02-15T08:40:00.323Z,3.06
2023-02-15T08:42:27.093Z,3.18
2023-02-15T08:45:03.411Z,3.27
2023-02-15T08:47:30.118Z,3.39
2023-02-15T08:50:03.417Z,3.49
2023-02-15T08:52:30.345Z,3.62
2023-02-15T08:55:06.375Z,3.73
2023-02-15T08:57:39.446Z,3.86
2023-02-15T09:00:13.312Z,3.93
2023-02-15T09:02:50.369Z,4.06
2023-02-15T09:05:20.434Z,4.06
2023-02-15T09:08:08.551Z,4.10
2023-02-15T09:10:35.203Z,4.33
2023-02-15T09:13:08.439Z,4.43
2023-02-15T09:15:35.136Z,4.54
2023-02-15T09:18:13.308Z,4.69
2023-02-15T09:20:39.918Z,4.84
2023-02-15T09:23:25.547Z,4.91
2023-02-15T09:26:03.496Z,5.00
2023-02-15T09:28:43.437Z,5.10
2023-02-15T09:33:56.366Z,5.39
2023-02-15T09:36:34.486Z,5.72
2023-02-15T09:39:32.357Z,6.10
2023-02-15T09:42:34.635Z,6.71
2023-02-15T09:45:18.802Z,7.23
2023-02-15T09:48:03.956Z,7.71
2023-02-15T09:51:11.445Z,8.08
2023-02-15T09:54:20.050Z,8.24
2023-02-15T09:57:01.350Z,8.34
2023-02-15T09:59:50.511Z,8.49
2023-02-15T10:02:40.400Z,8.77
2023-02-15T10:05:27.199Z,8.92
2023-02-15T10:08:15.343Z,8.99
2023-02-15T10:11:23.681Z,9.21
2023-02-15T10:14:25.616Z,9.54
2023-02-15T10:17:36.388Z,9.84
2023-02-15T10:20:32.174Z,10.15
2023-02-15T10:23:30.514Z,10.30
2023-02-15T10:26:15.115Z,10.17
2023-02-15T10:29:01.443Z,10.09
2023-02-15T10:31:33.457Z,10.26
2023-02-15T10:34:19.431Z,10.27
2023-02-15T10:37:05.940Z,10.32
2023-02-15T10:40:00.395Z,10.37
2023-02-15T10:42:52.331Z,10.37
2023-02-15T10:45:54.466Z,10.44
2023-02-15T10:48:30.204Z,10.67
2023-02-15T10:51:05.391Z,10.94
2023-02-15T10:54:04.676Z,11.27
2023-02-15T10:56:49.734Z,11.54
2023-02-15T10:59:31.606Z,11.83
2023-02-15T11:02:31.947Z,11.91
2023-02-15T11:05:30.660Z,12.06
2023-02-15T11:08:00.818Z,12.12
2023-02-15T11:10:47.947Z,12.10
2023-02-15T11:13:20.271Z,12.16
2023-02-15T11:19:08.419Z,12.30
2023-02-15T11:21:51.620Z,12.31
2023-02-15T11:24:30.373Z,12.21
2023-02-15T11:27:13.818Z,12.30
2023-02-15T11:29:59.501Z,12.34
2023-02-15T11:32:42.157Z,12.37
2023-02-15T11:35:28.809Z,12.44
2023-02-15T11:38:13.460Z,12.63
2023-02-15T11:40:53.001Z,12.82
2023-02-15T11:43:51.389Z,12.87
2023-02-15T11:46:26.593Z,12.90
2023-02-15T11:48:59.502Z,12.92
2023-02-15T11:51:45.383Z,12.84
2023-02-15T11:54:12.329Z,12.83
2023-02-15T11:56:45.458Z,12.96
2023-02-15T11:59:30.793Z,13.15
2023-02-15T12:04:56.459Z,13.09
2023-02-15T12:07:31.921Z,13.14
2023-02-15T12:10:22.317Z,13.07
2023-02-15T12:12:55.322Z,13.21
2023-02-15T12:15:45.401Z,13.30
2023-02-15T12:18:52.398Z,13.39
2023-02-15T12:21:40.694Z,13.37
2023-02-15T12:24:30.409Z,13.39
2023-02-15T12:27:08.392Z,13.57
2023-02-15T12:29:42.341Z,13.72
2023-02-15T12:32:24.481Z,13.96
2023-02-15T12:35:07.158Z,14.18
2023-02-15T12:37:35.780Z,14.27
2023-02-15T12:40:31.910Z,14.38
2023-02-15T12:42:58.881Z,14.52
2023-02-15T12:45:44.546Z,14.71
2023-02-15T12:48:18.731Z,14.67
2023-02-15T12:50:55.017Z,14.49
2023-02-15T12:53:26.189Z,14.43
2023-02-15T12:56:23.919Z,14.17
2023-02-15T12:59:12.505Z,13.86
2023-02-15T13:01:47.631Z,13.75
2023-02-15T13:04:32.436Z,13.62
2023-02-15T13:07:10.487Z,13.43
2023-02-15T13:09:40.798Z,13.37
2023-02-15T13:12:25.461Z,13.35
2023-02-15T13:15:00.561Z,13.38
2023-02-15T13:17:44.649Z,13.46
2023-02-15T13:20:22.128Z,13.70
2023-02-15T13:22:58.492Z,13.87
2023-02-15T13:25:44.063Z,14.07
2023-02-15T13:28:24.272Z,14.25
2023-02-15T13:30:59.385Z,14.31
2023-02-15T13:33:40.549Z,14.46
2023-02-15T13:36:45.575Z,14.36
2023-02-15T13:39:34.443Z,14.28
2023-02-15T13:42:28.415Z,14.27
2023-02-15T13:45:13.687Z,14.13
2023-02-15T13:47:59.322Z,14.03
2023-02-15T13:50:41.595Z,14.09
2023-02-15T13:53:08.151Z,14.23
2023-02-15T13:56:15.492Z,14.40
2023-02-15T13:59:23.734Z,14.33
2023-02-15T14:02:40.887Z,14.21
2023-02-15T14:06:01.573Z,14.04
2023-02-15T14:09:08.503Z,13.82
2023-02-15T14:11:59.536Z,13.55
2023-02-15T14:14:38.458Z,13.33
2023-02-15T14:17:30.798Z,13.11
2023-02-15T14:20:29.804Z,12.87
2023-02-15T14:23:35.513Z,12.74
2023-02-15T14:26:11.205Z,12.63
2023-02-15T14:28:57.436Z,12.55
2023-02-15T14:31:40.161Z,12.51
2023-02-15T14:34:25.384Z,12.39
2023-02-15T14:37:00.654Z,12.45
2023-02-15T14:40:03.529Z,12.43
2023-02-15T14:43:09.405Z,12.31
2023-02-15T14:46:09.587Z,12.20
2023-02-15T14:49:25.222Z,12.17
2023-02-15T14:51:58.562Z,12.09
2023-02-15T14:54:25.044Z,12.06
2023-02-15T14:57:10.666Z,12.01
2023-02-15T15:00:07.977Z,11.97
2023-02-15T15:02:59.722Z,11.93
2023-02-15T15:05:53.506Z,11.95
2023-02-15T15:08:48.727Z,11.85
2023-02-15T15:11:44.655Z,11.85
2023-02-15T15:14:32.494Z,11.82
2023-02-15T15:17:11.518Z,11.72
2023-02-15T15:19:53.636Z,11.66
2023-02-15T15:22:32.642Z,11.53
2023-02-15T15:25:16.448Z,11.46
2023-02-15T15:28:01.540Z,11.50
2023-02-15T15:30:37.606Z,11.46
2023-02-15T15:33:33.520Z,11.40
2023-02-15T15:36:28.804Z,11.28
2023-02-15T15:40:02.565Z,11.30
2023-02-15T15:42:50.879Z,11.21
2023-02-15T15:45:54.541Z,11.18
2023-02-15T15:48:54.618Z,11.01
2023-02-15T15:51:51.487Z,10.99
2023-02-15T15:54:28.566Z,10.93
2023-02-15T15:57:06.570Z,10.84
2023-02-15T15:59:53.606Z,10.75
2023-02-15T16:02:41.638Z,10.64
2023-02-15T16:05:17.687Z,10.48
2023-02-15T16:07:50.591Z,10.45
2023-02-15T16:10:30.457Z,10.34
2023-02-15T16:13:03.603Z,10.36
2023-02-15T16:15:50.878Z,10.25
2023-02-15T16:18:26.252Z,10.18
2023-02-15T16:21:09.203Z,10.10
2023-02-15T16:23:42.574Z,10.07
2023-02-15T16:26:35.224Z,10.01
2023-02-15T16:29:02.664Z,9.90
2023-02-15T16:31:44.629Z,9.86
2023-02-15T16:34:24.604Z,9.81
2023-02-15T16:37:17.245Z,9.74
2023-02-15T16:39:55.556Z,9.66
2023-02-15T16:42:23.006Z,9.66
2023-02-15T16:45:02.569Z,9.60
2023-02-15T16:47:32.668Z,9.52
2023-02-15T16:50:10.661Z,9.47
2023-02-15T16:52:37.381Z,9.38
2023-02-15T16:55:16.639Z,9.37
2023-02-15T16:57:44.068Z,9.25
2023-02-15T17:00:35.734Z,9.35
2023-02-15T17:03:06.867Z,9.28
2023-02-15T17:05:52.954Z,9.13
2023-02-15T17:08:34.450Z,9.12
2023-02-15T17:11:26.524Z,9.18
2023-02-15T17:14:05.904Z,9.12
2023-02-15T17:16:51.193Z,9.04
2023-02-15T17:19:24.542Z,9.05
2023-02-15T17:22:01.563Z,9.03
2023-02-15T17:24:43.665Z,9.00
2023-02-15T17:27:22.633Z,8.91
2023-02-15T17:30:03.870Z,8.88
2023-02-15T17:32:34.250Z,8.94
2023-02-15T17:35:15.800Z,8.87
2023-02-15T17:37:56.660Z,8.74
2023-02-15T17:40:35.677Z,8.89
2023-02-15T17:43:08.687Z,8.83
2023-02-15T17:45:47.697Z,8.82
2023-02-15T17:48:52.701Z,8.78
2023-02-15T17:51:27.590Z,8.62
2023-02-15T17:54:22.706Z,8.67
2023-02-15T17:57:02.616Z,8.67
2023-02-15T17:59:35.726Z,8.66
2023-02-15T18:02:36.552Z,8.48
2023-02-15T18:05:29.617Z,8.60
2023-02-15T18:08:21.623Z,8.52
2023-02-15T18:11:22.617Z,8.56
2023-02-15T18:13:49.466Z,8.49
2023-02-15T18:16:50.623Z,8.42
2023-02-15T18:19:33.583Z,8.40
2023-02-15T18:22:09.677Z,8.43
2023-02-15T18:24:38.907Z,8.44
2023-02-15T18:27:12.676Z,8.46
2023-02-15T18:29:46.642Z,8.51
2023-02-15T18:32:25.595Z,8.42
2023-02-15T18:34:55.426Z,8.31
2023-02-15T18:37:29.639Z,8.38
2023-02-15T18:40:02.752Z,8.39
2023-02-15T18:42:39.711Z,8.37
2023-02-15T18:45:26.594Z,8.36
2023-02-15T18:47:54.598Z,8.31
2023-02-15T18:50:34.869Z,8.18
2023-02-15T18:53:04.162Z,8.21
2023-02-15T18:55:41.994Z,8.17
2023-02-15T18:58:23.711Z,8.08
2023-02-15T19:01:06.878Z,8.00
2023-02-15T19:03:33.723Z,7.96
2023-02-15T19:06:10.610Z,7.84
2023-02-15T19:08:39.493Z,7.83
2023-02-15T19:11:37.062Z,7.85
2023-02-15T19:14:03.861Z,7.58
2023-02-15T19:16:44.907Z,7.73
2023-02-15T19:19:11.533Z,7.65
2023-02-15T19:21:46.689Z,7.63
2023-02-15T19:24:28.887Z,7.58
2023-02-15T19:27:04.638Z,7.57
2023-02-15T19:29:31.547Z,7.50
2023-02-15T19:32:07.497Z,7.56
2023-02-15T19:34:50.751Z,7.46
2023-02-15T19:37:42.550Z,7.52
2023-02-15T19:40:27.769Z,7.45
2023-02-15T19:42:54.913Z,7.45
2023-02-15T19:45:32.102Z,7.32
2023-02-15T19:48:08.769Z,7.36
2023-02-15T19:50:45.649Z,7.27
2023-02-15T19:53:23.075Z,7.31
2023-02-15T19:56:06.676Z,7.15
2023-02-15T19:58:39.900Z,7.20
2023-02-15T20:01:22.840Z,7.13
2023-02-15T20:03:53.517Z,7.19
2023-02-15T20:06:56.663Z,7.23
2023-02-15T20:09:26.433Z,7.13
2023-02-15T20:12:00.708Z,7.20
2023-02-15T20:14:33.638Z,7.16
2023-02-15T20:17:10.694Z,7.08
2023-02-15T20:19:45.655Z,7.05
2023-02-15T20:22:30.806Z,7.03
2023-02-15T20:25:26.859Z,7.11
2023-02-15T20:28:00.731Z,7.10
2023-02-15T20:30:32.614Z,6.98
2023-02-15T20:33:05.629Z,6.96
2023-02-15T20:35:43.646Z,6.96
2023-02-15T20:38:38.132Z,6.97
2023-02-15T20:41:43.619Z,6.91
2023-02-15T20:44:28.807Z,6.98
2023-02-15T20:46:58.062Z,6.93
2023-02-15T20:49:32.678Z,6.94
2023-02-15T20:52:01.354Z,6.91
2023-02-15T20:54:39.709Z,6.85
2023-02-15T20:57:07.185Z,6.87
2023-02-15T20:59:47.718Z,6.87
2023-02-15T21:05:39.769Z,6.84
2023-02-15T21:08:14.532Z,6.68
2023-02-15T21:10:51.659Z,6.83
2023-02-15T21:13:27.342Z,6.88
2023-02-15T21:16:02.858Z,6.87
2023-02-15T21:18:33.482Z,6.89
2023-02-15T21:21:12.772Z,6.76
2023-02-15T21:23:45.486Z,6.81
2023-02-15T21:26:23.778Z,6.86
2023-02-15T21:28:50.958Z,6.80
2023-02-15T21:31:33.940Z,6.90
2023-02-15T21:34:08.877Z,7.01
2023-02-15T21:36:35.830Z,7.06
2023-02-15T21:39:09.783Z,6.98
2023-02-15T21:41:55.585Z,7.03
2023-02-15T21:44:50.790Z,7.06
2023-02-15T21:47:55.855Z,7.08
2023-02-15T21:50:53.824Z,6.96
2023-02-15T21:53:27.519Z,7.03
2023-02-15T21:56:06.010Z,6.94
2023-02-15T21:58:36.877Z,6.79
2023-02-15T22:01:10.790Z,6.93
2023-02-15T22:03:44.868Z,6.91
2023-02-15T22:06:37.615Z,6.69
2023-02-15T22:09:25.778Z,6.75
2023-02-15T22:12:03.860Z,6.63
2023-02-15T22:14:38.116Z,6.80
2023-02-15T22:17:22.687Z,6.78
2023-02-15T22:19:50.128Z,6.75
2023-02-15T22:22:23.701Z,6.68
2023-02-15T22:25:08.723Z,6.64
2023-02-15T22:27:45.699Z,6.71
2023-02-15T22:30:26.554Z,6.71
2023-02-15T22:33:01.748Z,6.69
2023-02-15T22:35:44.831Z,6.58
2023-02-15T22:38:17.803Z,6.62
2023-02-15T22:40:56.360Z,6.45
2023-02-15T22:43:37.719Z,6.67
2023-02-15T22:46:20.211Z,6.64
2023-02-15T22:48:59.036Z,6.50
2023-02-15T22:51:29.709Z,6.46
2023-02-15T22:54:05.766Z,6.50
2023-02-15T22:56:43.462Z,6.54
2023-02-15T22:59:38.837Z,6.55
2023-02-15T23:02:20.581Z,6.55
2023-02-15T23:04:53.845Z,6.43
2023-02-15T23:07:27.764Z,6.46
2023-02-15T23:10:06.685Z,6.39
2023-02-15T23:12:53.605Z,6.39
2023-02-15T23:15:26.935Z,6.34
2023-02-15T23:17:59.706Z,6.30
2023-02-15T23:20:26.657Z,6.21
2023-02-15T23:22:59.808Z,6.10
2023-02-15T23:25:55.149Z,6.23
2023-02-15T23:28:33.784Z,6.10
2023-02-15T23:31:09.669Z,6.19
2023-02-15T23:33:36.469Z,6.11
2023-02-15T23:36:09.777Z,6.09
2023-02-15T23:38:42.760Z,6.01
2023-02-15T23:41:27.044Z,6.11
2023-02-15T23:44:06.773Z,6.13
2023-02-15T23:46:42.888Z,5.92
2023-02-15T23:49:25.915Z,6.08
2023-02-15T23:52:00.837Z,5.97
2023-02-15T23:54:27.553Z,5.96
2023-02-15T23:57:09.790Z,5.89
2023-02-15T23:59:44.818Z,5.96
